createdAt,value
2023-08-07T00:00:12.810Z,99.90
2023-08-07T00:02:58.037Z,99.90
2023-08-07T00:05:46.482Z,99.90
2023-08-07T00:08:32.658Z,99.90
2023-08-07T00:11:17.813Z,99.90
2023-08-07T00:14:03.690Z,99.90
2023-08-07T00:16:48.851Z,99.90
2023-08-07T00:19:34.863Z,99.90
2023-08-07T00:22:20.040Z,99.90
2023-08-07T00:25:06.037Z,99.90
2023-08-07T00:27:51.522Z,99.90
2023-08-07T00:30:36.837Z,99.90
2023-08-07T00:33:22.511Z,99.90
2023-08-07T00:36:09.590Z,99.90
2023-08-07T00:38:55.097Z,99.90
2023-08-07T00:41:40.724Z,99.90
2023-08-07T00:44:26.463Z,99.90
2023-08-07T00:47:12.370Z,99.90
2023-08-07T00:49:59.800Z,99.90
2023-08-07T00:52:45.445Z,99.90
2023-08-07T00:55:30.998Z,99.90
2023-08-07T00:58:16.494Z,99.90
2023-08-07T01:01:02.527Z,99.90
2023-08-07T01:03:48.097Z,99.90
2023-08-07T01:06:33.597Z,99.90
2023-08-07T01:09:19.265Z,99.90
2023-08-07T01:12:19.901Z,99.90
2023-08-07T01:15:26.593Z,99.90
2023-08-07T01:18:12.867Z,99.90
2023-08-07T01:20:58.029Z,99.90
2023-08-07T01:23:43.398Z,99.90
2023-08-07T01:26:29.086Z,99.90
2023-08-07T01:29:26.815Z,99.90
2023-08-07T01:32:18.015Z,99.90
2023-08-07T01:35:06.450Z,99.90
2023-08-07T01:37:55.044Z,99.90
2023-08-07T01:40:41.489Z,99.90
2023-08-07T01:43:27.972Z,99.90
2023-08-07T01:46:13.459Z,99.90
2023-08-07T01:48:58.882Z,99.90
2023-08-07T01:51:44.552Z,99.90
2023-08-07T01:54:29.982Z,99.90
2023-08-07T01:57:15.448Z,99.90
2023-08-07T02:00:01.084Z,99.90
2023-08-07T02:02:47.910Z,99.90
2023-08-07T02:05:34.092Z,99.90
2023-08-07T02:08:20.842Z,99.90
2023-08-07T02:11:06.917Z,99.90
2023-08-07T02:13:52.201Z,99.90
2023-08-07T02:16:37.905Z,99.90
2023-08-07T02:19:23.481Z,99.90
2023-08-07T02:22:08.838Z,99.90
2023-08-07T02:24:54.335Z,99.90
2023-08-07T02:27:40.137Z,99.90
2023-08-07T02:30:25.810Z,99.90
2023-08-07T02:33:11.353Z,99.90
2023-08-07T02:35:57.384Z,99.90
2023-08-07T02:38:42.972Z,99.90
2023-08-07T02:41:28.527Z,99.90
2023-08-07T02:44:13.943Z,99.90
2023-08-07T02:46:59.425Z,99.90
2023-08-07T02:49:44.812Z,99.90
2023-08-07T02:52:30.904Z,99.90
2023-08-07T02:55:16.298Z,99.90
2023-08-07T02:58:01.663Z,99.90
2023-08-07T03:00:47.257Z,99.90
2023-08-07T03:03:33.141Z,99.90
2023-08-07T03:06:18.957Z,99.90
2023-08-07T03:09:04.861Z,99.90
2023-08-07T03:11:50.131Z,99.90
2023-08-07T03:14:36.127Z,99.90
2023-08-07T03:17:21.815Z,99.90
2023-08-07T03:20:07.873Z,99.90
2023-08-07T03:22:53.679Z,99.90
2023-08-07T03:25:39.235Z,99.90
2023-08-07T03:28:24.690Z,99.90
2023-08-07T03:31:10.336Z,99.90
2023-08-07T03:33:56.767Z,99.90
2023-08-07T03:36:42.418Z,99.90
2023-08-07T03:39:27.754Z,99.90
2023-08-07T03:42:13.210Z,99.90
2023-08-07T03:44:59.198Z,99.90
2023-08-07T03:47:44.929Z,99.90
2023-08-07T03:50:31.792Z,99.90
2023-08-07T03:53:17.510Z,99.90
2023-08-07T03:56:05.661Z,99.90
2023-08-07T03:58:52.897Z,99.90
2023-08-07T04:01:40.534Z,99.80
2023-08-07T04:04:25.957Z,99.90
2023-08-07T04:07:11.489Z,99.90
2023-08-07T04:09:56.956Z,99.90
2023-08-07T04:12:42.655Z,99.90
2023-08-07T04:15:28.362Z,99.10
2023-08-07T04:18:13.698Z,99.90
2023-08-07T04:20:59.794Z,99.90
2023-08-07T04:23:45.426Z,99.50
2023-08-07T04:26:30.646Z,99.70
2023-08-07T04:29:16.323Z,99.70
2023-08-07T04:32:01.800Z,98.40
2023-08-07T04:34:47.308Z,98.40
2023-08-07T04:37:32.870Z,99.10
2023-08-07T04:40:18.464Z,97.60
2023-08-07T04:43:04.436Z,97.90
2023-08-07T04:45:50.178Z,99.00
2023-08-07T04:48:35.742Z,99.50
2023-08-07T04:51:21.127Z,97.50
2023-08-07T04:54:06.658Z,98.70
2023-08-07T04:56:52.300Z,97.00
2023-08-07T04:59:37.711Z,97.70
2023-08-07T05:02:23.783Z,99.00
2023-08-07T05:05:10.826Z,97.20
2023-08-07T05:07:56.721Z,96.30
2023-08-07T05:10:42.383Z,98.20
2023-08-07T05:13:27.794Z,97.70
2023-08-07T05:16:13.353Z,96.00
2023-08-07T05:18:58.882Z,95.70
2023-08-07T05:21:44.451Z,96.70
2023-08-07T05:24:35.436Z,96.00
2023-08-07T05:27:21.043Z,95.10
2023-08-07T05:30:07.156Z,95.30
2023-08-07T05:32:52.743Z,95.90
2023-08-07T05:35:39.829Z,95.20
2023-08-07T05:38:25.129Z,95.50
2023-08-07T05:41:10.842Z,95.00
2023-08-07T05:43:56.046Z,93.70
2023-08-07T05:46:41.699Z,92.60
2023-08-07T05:49:27.225Z,92.10
2023-08-07T05:52:12.813Z,92.10
2023-08-07T05:54:58.396Z,92.80
2023-08-07T05:57:43.869Z,92.40
2023-08-07T06:00:29.663Z,91.70
2023-08-07T06:03:15.006Z,92.10
2023-08-07T06:06:00.613Z,90.90
2023-08-07T06:08:46.095Z,91.60
2023-08-07T06:11:31.643Z,90.60
2023-08-07T06:14:17.767Z,89.60
2023-08-07T06:17:03.304Z,89.70
2023-08-07T06:19:49.221Z,88.70
2023-08-07T06:22:34.562Z,89.20
2023-08-07T06:25:20.519Z,89.00
2023-08-07T06:28:05.996Z,88.20
2023-08-07T06:30:51.585Z,85.60
2023-08-07T06:33:37.814Z,86.20
2023-08-07T06:36:23.196Z,86.00
2023-08-07T06:39:08.749Z,86.00
2023-08-07T06:41:54.516Z,85.90
2023-08-07T06:44:45.990Z,85.30
2023-08-07T06:47:31.530Z,85.20
2023-08-07T06:50:16.916Z,85.00
2023-08-07T06:53:02.481Z,85.20
2023-08-07T06:55:47.967Z,85.10
2023-08-07T06:58:33.495Z,84.50
2023-08-07T07:01:19.188Z,83.40
2023-08-07T07:04:04.994Z,83.70
2023-08-07T07:06:50.807Z,92.10
2023-08-07T07:09:36.419Z,98.60
2023-08-07T07:12:21.958Z,99.80
2023-08-07T07:15:08.012Z,99.70
2023-08-07T07:17:53.364Z,99.70
2023-08-07T07:20:38.921Z,99.50
2023-08-07T07:23:24.204Z,98.70
2023-08-07T07:26:09.726Z,97.60
2023-08-07T07:28:55.242Z,97.20
2023-08-07T07:31:40.748Z,96.60
2023-08-07T07:34:26.425Z,97.70
2023-08-07T07:37:11.996Z,96.50
2023-08-07T07:39:57.605Z,92.30
2023-08-07T07:42:43.076Z,89.10
2023-08-07T07:45:28.693Z,86.20
2023-08-07T07:48:14.374Z,87.30
2023-08-07T07:51:01.576Z,85.50
2023-08-07T07:53:50.769Z,85.30
2023-08-07T07:56:44.937Z,85.70
2023-08-07T07:59:30.472Z,85.50
2023-08-07T08:02:17.030Z,84.00
2023-08-07T08:05:03.296Z,85.00
2023-08-07T08:07:48.417Z,85.10
2023-08-07T08:10:33.969Z,84.60
2023-08-07T08:13:20.006Z,84.20
2023-08-07T08:16:05.573Z,85.80
2023-08-07T08:18:51.064Z,85.20
2023-08-07T08:21:36.628Z,86.60
2023-08-07T08:24:22.111Z,86.00
2023-08-07T08:27:07.787Z,84.60
2023-08-07T08:29:53.344Z,83.90
2023-08-07T08:32:40.639Z,84.00
2023-08-07T08:35:26.594Z,83.80
2023-08-07T08:38:12.783Z,83.40
2023-08-07T08:40:58.263Z,82.40
2023-08-07T08:43:46.674Z,81.30
2023-08-07T08:46:32.892Z,81.40
2023-08-07T08:49:29.057Z,81.00
2023-08-07T08:52:14.536Z,80.70
2023-08-07T08:55:00.428Z,82.40
2023-08-07T08:57:46.148Z,80.20
2023-08-07T09:00:31.849Z,80.40
2023-08-07T09:03:19.464Z,81.10
2023-08-07T09:06:07.759Z,82.90
2023-08-07T09:08:54.441Z,82.50
2023-08-07T09:11:42.427Z,84.20
2023-08-07T09:14:31.566Z,85.40
2023-08-07T09:17:18.024Z,86.40
2023-08-07T09:20:05.499Z,84.40
2023-08-07T09:22:50.824Z,82.60
2023-08-07T09:25:36.807Z,84.10
2023-08-07T09:28:22.118Z,83.00
2023-08-07T09:31:10.162Z,82.30
2023-08-07T09:33:55.485Z,81.50
2023-08-07T09:36:42.422Z,81.10
2023-08-07T09:39:30.662Z,82.60
2023-08-07T09:42:17.605Z,81.60
2023-08-07T09:45:03.875Z,81.50
2023-08-07T09:48:01.872Z,81.00
2023-08-07T09:50:47.278Z,79.70
2023-08-07T09:53:33.213Z,79.20
2023-08-07T09:56:18.518Z,76.70
2023-08-07T09:59:05.198Z,77.70
2023-08-07T10:01:51.459Z,77.80
2023-08-07T10:04:37.903Z,80.20
2023-08-07T10:07:24.354Z,83.30
2023-08-07T10:10:11.143Z,84.90
2023-08-07T10:12:57.541Z,88.40
2023-08-07T10:15:44.045Z,91.50
2023-08-07T10:18:30.043Z,91.20
2023-08-07T10:21:15.366Z,91.10
2023-08-07T10:24:04.642Z,90.60
2023-08-07T10:26:50.524Z,88.10
2023-08-07T10:29:37.146Z,86.00
2023-08-07T10:32:25.368Z,84.00
2023-08-07T10:35:10.769Z,83.70
2023-08-07T10:37:56.153Z,82.80
2023-08-07T10:41:04.376Z,82.70
2023-08-07T10:43:49.610Z,81.00
2023-08-07T10:46:55.521Z,80.50
2023-08-07T10:49:42.475Z,79.80
2023-08-07T10:52:29.303Z,78.40
2023-08-07T10:55:19.295Z,78.20
2023-08-07T10:58:04.797Z,79.30
2023-08-07T11:00:50.860Z,81.40
2023-08-07T11:03:37.551Z,81.10
2023-08-07T11:06:34.049Z,77.60
2023-08-07T11:09:19.657Z,78.40
2023-08-07T11:12:05.655Z,75.50
2023-08-07T11:14:51.263Z,73.10
2023-08-07T11:17:37.118Z,73.50
2023-08-07T11:20:22.563Z,71.70
2023-08-07T11:23:08.042Z,71.60
2023-08-07T11:25:54.093Z,72.30
2023-08-07T11:28:39.396Z,71.40
2023-08-07T11:31:26.465Z,72.10
2023-08-07T11:34:12.325Z,71.50
2023-08-07T11:36:59.231Z,71.60
2023-08-07T11:39:45.667Z,71.50
2023-08-07T11:42:30.986Z,71.70
2023-08-07T11:45:16.499Z,71.50
2023-08-07T11:48:03.484Z,72.00
2023-08-07T11:50:49.047Z,73.20
2023-08-07T11:53:36.763Z,72.20
2023-08-07T11:56:23.055Z,70.70
2023-08-07T11:59:08.166Z,69.60
2023-08-07T12:01:53.714Z,66.30
2023-08-07T12:04:39.711Z,65.50
2023-08-07T12:07:28.265Z,65.50
2023-08-07T12:10:15.241Z,64.30
2023-08-07T12:13:05.826Z,64.00
2023-08-07T12:15:58.375Z,63.90
2023-08-07T12:18:51.954Z,62.80
2023-08-07T12:21:37.178Z,64.30
2023-08-07T12:24:24.414Z,64.50
2023-08-07T12:27:10.338Z,64.60
2023-08-07T12:29:56.034Z,64.40
2023-08-07T12:32:41.812Z,64.60
2023-08-07T12:35:26.988Z,64.50
2023-08-07T12:38:14.843Z,65.70
2023-08-07T12:41:00.054Z,65.00
2023-08-07T12:43:45.763Z,64.30
2023-08-07T12:46:32.581Z,64.90
2023-08-07T12:49:20.212Z,64.20
2023-08-07T12:52:05.978Z,65.70
2023-08-07T12:54:51.670Z,65.80
2023-08-07T12:57:37.233Z,66.40
2023-08-07T13:00:23.743Z,67.20
2023-08-07T13:03:09.333Z,65.50
2023-08-07T13:05:54.862Z,63.50
2023-08-07T13:08:40.466Z,63.00
2023-08-07T13:11:25.984Z,62.70
2023-08-07T13:14:11.348Z,61.70
2023-08-07T13:16:57.151Z,60.70
2023-08-07T13:19:43.177Z,60.00
2023-08-07T13:22:29.402Z,59.60
2023-08-07T13:25:15.216Z,59.60
2023-08-07T13:28:05.217Z,57.30
2023-08-07T13:30:51.973Z,59.00
2023-08-07T13:33:37.123Z,58.40
2023-08-07T13:36:22.818Z,58.70
2023-08-07T13:39:09.966Z,57.40
2023-08-07T13:41:55.948Z,57.80
2023-08-07T13:44:41.527Z,58.50
2023-08-07T13:47:27.069Z,58.20
2023-08-07T13:50:13.918Z,56.90
2023-08-07T13:53:12.886Z,56.10
2023-08-07T13:56:00.538Z,55.50
2023-08-07T13:58:46.061Z,55.80
2023-08-07T14:01:32.102Z,55.80
2023-08-07T14:04:17.746Z,55.30
2023-08-07T14:07:04.971Z,56.30
2023-08-07T14:09:50.218Z,56.60
2023-08-07T14:12:35.634Z,55.90
2023-08-07T14:15:21.159Z,55.70
2023-08-07T14:18:07.107Z,57.80
2023-08-07T14:21:01.889Z,55.10
2023-08-07T14:23:49.276Z,54.00
2023-08-07T14:26:34.392Z,53.30
2023-08-07T14:29:21.035Z,53.70
2023-08-07T14:32:06.827Z,55.10
2023-08-07T14:34:53.397Z,55.10
2023-08-07T14:37:39.027Z,54.40
2023-08-07T14:40:24.467Z,52.30
2023-08-07T14:43:11.291Z,51.00
2023-08-07T14:45:56.630Z,49.70
2023-08-07T14:48:42.136Z,49.10
2023-08-07T14:51:27.659Z,48.80
2023-08-07T14:54:13.138Z,47.60
2023-08-07T14:56:59.924Z,47.10
2023-08-07T14:59:45.563Z,46.20
2023-08-07T15:02:31.037Z,45.80
2023-08-07T15:05:16.623Z,47.00
2023-08-07T15:08:03.114Z,45.10
2023-08-07T15:10:48.282Z,44.40
2023-08-07T15:13:34.247Z,44.10
2023-08-07T15:16:20.126Z,45.40
2023-08-07T15:19:05.283Z,45.50
2023-08-07T15:21:54.104Z,47.70
2023-08-07T15:24:39.291Z,48.50
2023-08-07T15:27:24.980Z,49.30
2023-08-07T15:30:11.332Z,51.30
2023-08-07T15:32:57.294Z,51.90
2023-08-07T15:35:43.230Z,52.30
2023-08-07T15:38:29.465Z,53.70
2023-08-07T15:41:14.948Z,56.90
2023-08-07T15:44:00.540Z,58.00
2023-08-07T15:46:46.542Z,59.80
2023-08-07T15:49:32.528Z,60.50
2023-08-07T15:52:19.411Z,61.00
2023-08-07T15:55:04.974Z,61.50
2023-08-07T15:57:50.510Z,62.40
2023-08-07T16:00:36.083Z,62.60
2023-08-07T16:03:23.163Z,63.00
2023-08-07T16:06:09.737Z,63.40
2023-08-07T16:08:58.521Z,63.30
2023-08-07T16:11:43.745Z,62.40
2023-08-07T16:14:31.411Z,62.80
2023-08-07T16:17:20.134Z,63.30
2023-08-07T16:20:06.103Z,63.50
2023-08-07T16:22:51.900Z,64.10
2023-08-07T16:25:37.521Z,65.50
2023-08-07T16:28:22.903Z,66.90
2023-08-07T16:31:08.593Z,67.10
2023-08-07T16:33:54.082Z,67.70
2023-08-07T16:36:39.584Z,67.90
2023-08-07T16:39:25.243Z,68.30
2023-08-07T16:42:11.052Z,67.50
2023-08-07T16:44:56.456Z,66.70
2023-08-07T16:47:42.370Z,64.70
2023-08-07T16:50:29.204Z,64.00
2023-08-07T16:53:14.785Z,63.30
2023-08-07T16:56:00.183Z,62.40
2023-08-07T16:58:49.390Z,62.20
2023-08-07T17:01:34.993Z,61.60
2023-08-07T17:04:20.422Z,61.60
2023-08-07T17:07:10.154Z,62.50
2023-08-07T17:09:55.623Z,63.10
2023-08-07T17:12:41.966Z,63.20
2023-08-07T17:15:27.337Z,62.70
2023-08-07T17:18:13.003Z,62.80
2023-08-07T17:20:59.661Z,62.70
2023-08-07T17:23:45.157Z,62.70
2023-08-07T17:26:30.889Z,63.20
2023-08-07T17:29:16.461Z,62.50
2023-08-07T17:32:02.016Z,63.00
2023-08-07T17:34:47.482Z,62.60
2023-08-07T17:37:33.118Z,62.70
2023-08-07T17:40:18.589Z,62.80
2023-08-07T17:43:04.418Z,63.00
2023-08-07T17:45:50.041Z,63.40
2023-08-07T17:48:35.369Z,63.50
2023-08-07T17:51:21.131Z,63.30
2023-08-07T17:54:06.545Z,63.60
2023-08-07T17:56:52.152Z,63.40
2023-08-07T17:59:38.156Z,63.90
2023-08-07T18:02:23.746Z,64.10
2023-08-07T18:05:10.491Z,63.80
2023-08-07T18:07:56.061Z,63.70
2023-08-07T18:10:41.633Z,63.70
2023-08-07T18:13:27.236Z,64.00
2023-08-07T18:16:12.749Z,64.20
2023-08-07T18:18:59.108Z,64.10
2023-08-07T18:21:45.273Z,64.60
2023-08-07T18:24:30.966Z,64.70
2023-08-07T18:27:18.699Z,64.90
2023-08-07T18:30:04.600Z,64.90
2023-08-07T18:32:50.611Z,64.70
2023-08-07T18:35:37.541Z,64.80
2023-08-07T18:38:22.909Z,65.90
2023-08-07T18:41:08.706Z,65.00
2023-08-07T18:43:54.138Z,65.50
2023-08-07T18:46:39.801Z,65.30
2023-08-07T18:49:25.381Z,65.60
2023-08-07T18:52:10.851Z,65.50
2023-08-07T18:54:56.661Z,65.80
2023-08-07T18:57:42.259Z,65.70
2023-08-07T19:00:27.713Z,65.80
2023-08-07T19:03:13.397Z,65.90
2023-08-07T19:05:58.729Z,66.30
2023-08-07T19:08:44.223Z,66.50
2023-08-07T19:11:31.468Z,67.00
2023-08-07T19:14:18.087Z,66.90
2023-08-07T19:17:07.234Z,66.90
2023-08-07T19:19:55.067Z,66.90
2023-08-07T19:22:41.257Z,67.10
2023-08-07T19:25:27.589Z,67.00
2023-08-07T19:28:13.754Z,67.20
2023-08-07T19:31:06.466Z,67.10
2023-08-07T19:33:52.081Z,67.30
2023-08-07T19:36:41.624Z,67.50
2023-08-07T19:39:27.692Z,68.10
2023-08-07T19:42:14.024Z,68.60
2023-08-07T19:44:59.563Z,68.80
2023-08-07T19:47:46.973Z,69.10
2023-08-07T19:50:32.722Z,69.30
2023-08-07T19:53:18.320Z,69.80
2023-08-07T19:56:04.158Z,69.80
2023-08-07T19:58:49.947Z,69.90
2023-08-07T20:01:35.307Z,70.40
2023-08-07T20:04:20.991Z,70.90
2023-08-07T20:07:06.521Z,71.10
2023-08-07T20:09:52.251Z,71.30
2023-08-07T20:12:38.773Z,71.40
2023-08-07T20:15:24.295Z,71.70
2023-08-07T20:18:09.812Z,72.00
2023-08-07T20:20:55.355Z,72.10
2023-08-07T20:23:41.045Z,71.50
2023-08-07T20:26:26.483Z,71.30
2023-08-07T20:29:12.131Z,70.90
2023-08-07T20:31:58.774Z,70.70
2023-08-07T20:34:44.834Z,71.10
2023-08-07T20:37:30.377Z,70.10
2023-08-07T20:40:15.953Z,70.00
2023-08-07T20:43:01.559Z,69.40
2023-08-07T20:45:47.789Z,68.20
2023-08-07T20:48:33.273Z,67.20
2023-08-07T20:51:19.285Z,67.20
2023-08-07T20:54:04.603Z,67.60
2023-08-07T20:56:50.060Z,66.90
2023-08-07T20:59:35.655Z,67.80
2023-08-07T21:02:21.292Z,67.10
2023-08-07T21:05:07.293Z,66.30
2023-08-07T21:07:52.599Z,67.10
2023-08-07T21:10:38.125Z,66.40
2023-08-07T21:13:23.775Z,66.60
2023-08-07T21:16:09.347Z,67.20
2023-08-07T21:18:54.955Z,66.90
2023-08-07T21:21:40.524Z,66.80
2023-08-07T21:24:26.246Z,66.40
2023-08-07T21:27:13.049Z,66.30
2023-08-07T21:29:58.388Z,66.00
2023-08-07T21:32:45.285Z,66.30
2023-08-07T21:35:30.890Z,66.40
2023-08-07T21:38:16.341Z,67.00
2023-08-07T21:41:02.021Z,67.20
2023-08-07T21:43:47.535Z,66.80
2023-08-07T21:46:33.175Z,67.30
2023-08-07T21:49:18.633Z,67.60
2023-08-07T21:52:04.549Z,67.60
2023-08-07T21:54:50.127Z,67.80
2023-08-07T21:57:35.587Z,68.10
2023-08-07T22:00:21.496Z,68.30
2023-08-07T22:03:06.961Z,68.00
2023-08-07T22:05:52.962Z,68.20
2023-08-07T22:08:39.289Z,68.50
2023-08-07T22:11:24.544Z,68.70
2023-08-07T22:14:10.046Z,68.50
2023-08-07T22:16:55.695Z,68.60
2023-08-07T22:19:43.504Z,68.50
2023-08-07T22:22:33.982Z,68.40
2023-08-07T22:25:19.764Z,68.40
2023-08-07T22:28:05.880Z,68.60
2023-08-07T22:30:52.691Z,68.60
2023-08-07T22:33:38.237Z,69.00
2023-08-07T22:36:24.147Z,68.70
2023-08-07T22:39:09.663Z,69.00
2023-08-07T22:41:55.780Z,69.20
2023-08-07T22:44:41.512Z,69.60
2023-08-07T22:47:27.077Z,69.80
2023-08-07T22:50:13.090Z,70.30
2023-08-07T22:52:58.604Z,71.00
2023-08-07T22:55:47.123Z,71.20
2023-08-07T22:58:32.270Z,71.60
2023-08-07T23:01:18.014Z,71.90
2023-08-07T23:04:03.465Z,72.40
2023-08-07T23:06:48.685Z,72.80
2023-08-07T23:09:34.273Z,72.70
2023-08-07T23:12:20.120Z,72.90
2023-08-07T23:15:06.362Z,73.40
2023-08-07T23:17:52.051Z,73.60
2023-08-07T23:20:37.899Z,73.80
2023-08-07T23:23:24.080Z,74.20
2023-08-07T23:26:09.132Z,74.40
2023-08-07T23:28:54.563Z,74.50
2023-08-07T23:31:40.605Z,74.60
2023-08-07T23:34:26.031Z,74.80
2023-08-07T23:37:11.608Z,75.10
2023-08-07T23:39:57.242Z,74.80
2023-08-07T23:42:42.388Z,74.90
2023-08-07T23:45:28.030Z,75.00
2023-08-07T23:48:15.068Z,75.50
2023-08-07T23:51:00.509Z,75.70
2023-08-07T23:53:46.141Z,76.10
2023-08-07T23:56:31.661Z,76.10
2023-08-07T23:59:17.125Z,76.30
